sensor_id;sensor_type;location;lat;lon;timestamp;P1;durP1;ratioP1;P2;durP2;ratioP2
81523;SDS011;70954;49.500;10.416;2023-12-20T00:02:21;1.60;;;1.50;;
81523;SDS011;70954;49.500;10.416;2023-12-20T00:04:47;1.30;;;1.20;;
81523;SDS011;70954;49.500;10.416;2023-12-20T00:07:12;2.00;;;1.40;;
81523;SDS011;70954;49.500;10.416;2023-12-20T00:09:37;2.20;;;1.45;;
81523;SDS011;70954;49.500;10.416;2023-12-20T00:12:03;1.55;;;1.20;;
81523;SDS011;70954;49.500;10.416;2023-12-20T00:14:29;1.25;;;1.08;;
81523;SDS011;70954;49.500;10.416;2023-12-20T00:16:54;1.50;;;1.13;;
81523;SDS011;70954;49.500;10.416;2023-12-20T00:19:20;1.73;;;1.27;;
81523;SDS011;70954;49.500;10.416;2023-12-20T00:21:45;2.30;;;1.13;;
81523;SDS011;70954;49.500;10.416;2023-12-20T00:24:10;1.40;;;1.30;;
81523;SDS011;70954;49.500;10.416;2023-12-20T00:26:36;1.20;;;1.10;;
81523;SDS011;70954;49.500;10.416;2023-12-20T00:29:01;1.58;;;0.90;;
81523;SDS011;70954;49.500;10.416;2023-12-20T00:31:27;2.35;;;1.40;;
81523;SDS011;70954;49.500;10.416;2023-12-20T00:33:52;1.77;;;1.15;;
81523;SDS011;70954;49.500;10.416;2023-12-20T00:36:18;1.48;;;1.13;;
81523;SDS011;70954;49.500;10.416;2023-12-20T00:38:43;1.25;;;1.15;;
81523;SDS011;70954;49.500;10.416;2023-12-20T00:41:09;0.80;;;0.80;;
81523;SDS011;70954;49.500;10.416;2023-12-20T00:43:34;2.25;;;1.10;;
81523;SDS011;70954;49.500;10.416;2023-12-20T00:46:00;1.38;;;1.27;;
81523;SDS011;70954;49.500;10.416;2023-12-20T00:48:25;1.25;;;0.90;;
81523;SDS011;70954;49.500;10.416;2023-12-20T00:50:51;1.30;;;1.17;;
81523;SDS011;70954;49.500;10.416;2023-12-20T00:53:16;1.70;;;1.17;;
81523;SDS011;70954;49.500;10.416;2023-12-20T00:55:42;2.92;;;1.13;;
81523;SDS011;70954;49.500;10.416;2023-12-20T00:58:07;1.23;;;1.00;;
81523;SDS011;70954;49.500;10.416;2023-12-20T01:00:33;1.50;;;1.10;;
81523;SDS011;70954;49.500;10.416;2023-12-20T01:02:58;1.17;;;1.00;;
81523;SDS011;70954;49.500;10.416;2023-12-20T01:05:24;1.23;;;0.93;;
81523;SDS011;70954;49.500;10.416;2023-12-20T01:07:49;2.03;;;1.20;;
81523;SDS011;70954;49.500;10.416;2023-12-20T01:10:14;1.17;;;1.08;;
81523;SDS011;70954;49.500;10.416;2023-12-20T01:12:40;0.98;;;0.80;;
81523;SDS011;70954;49.500;10.416;2023-12-20T01:15:05;1.58;;;1.10;;
81523;SDS011;70954;49.500;10.416;2023-12-20T01:17:31;0.80;;;0.70;;
81523;SDS011;70954;49.500;10.416;2023-12-20T01:19:57;1.40;;;0.95;;
81523;SDS011;70954;49.500;10.416;2023-12-20T01:22:22;1.10;;;1.00;;
81523;SDS011;70954;49.500;10.416;2023-12-20T01:24:47;1.38;;;1.05;;
81523;SDS011;70954;49.500;10.416;2023-12-20T01:27:13;1.23;;;0.98;;
81523;SDS011;70954;49.500;10.416;2023-12-20T01:29:38;1.38;;;0.90;;
81523;SDS011;70954;49.500;10.416;2023-12-20T01:32:04;1.15;;;0.65;;
81523;SDS011;70954;49.500;10.416;2023-12-20T01:34:30;0.70;;;0.60;;
81523;SDS011;70954;49.500;10.416;2023-12-20T01:36:55;0.70;;;0.68;;
81523;SDS011;70954;49.500;10.416;2023-12-20T01:39:21;1.63;;;0.90;;
81523;SDS011;70954;49.500;10.416;2023-12-20T01:41:46;1.50;;;0.90;;
81523;SDS011;70954;49.500;10.416;2023-12-20T01:44:12;1.27;;;0.90;;
81523;SDS011;70954;49.500;10.416;2023-12-20T01:46:37;1.20;;;0.88;;
81523;SDS011;70954;49.500;10.416;2023-12-20T01:49:03;0.80;;;0.80;;
81523;SDS011;70954;49.500;10.416;2023-12-20T01:51:29;0.65;;;0.65;;
81523;SDS011;70954;49.500;10.416;2023-12-20T01:53:55;1.65;;;0.90;;
81523;SDS011;70954;49.500;10.416;2023-12-20T01:56:22;1.33;;;0.80;;
81523;SDS011;70954;49.500;10.416;2023-12-20T01:58:48;1.17;;;0.90;;
81523;SDS011;70954;49.500;10.416;2023-12-20T02:01:14;0.95;;;0.90;;
81523;SDS011;70954;49.500;10.416;2023-12-20T02:03:41;0.70;;;0.70;;
81523;SDS011;70954;49.500;10.416;2023-12-20T02:06:07;1.08;;;0.80;;
81523;SDS011;70954;49.500;10.416;2023-12-20T02:08:34;0.90;;;0.70;;
81523;SDS011;70954;49.500;10.416;2023-12-20T02:11:00;0.77;;;0.68;;
81523;SDS011;70954;49.500;10.416;2023-12-20T02:13:26;1.00;;;0.60;;
81523;SDS011;70954;49.500;10.416;2023-12-20T02:15:52;0.70;;;0.70;;
81523;SDS011;70954;49.500;10.416;2023-12-20T02:18:17;0.50;;;0.50;;
81523;SDS011;70954;49.500;10.416;2023-12-20T02:20:43;0.52;;;0.52;;
81523;SDS011;70954;49.500;10.416;2023-12-20T02:23:08;0.77;;;0.70;;
81523;SDS011;70954;49.500;10.416;2023-12-20T02:25:34;0.95;;;0.70;;
81523;SDS011;70954;49.500;10.416;2023-12-20T02:27:59;0.68;;;0.68;;
81523;SDS011;70954;49.500;10.416;2023-12-20T02:30:26;0.52;;;0.50;;
81523;SDS011;70954;49.500;10.416;2023-12-20T02:32:51;0.93;;;0.80;;
81523;SDS011;70954;49.500;10.416;2023-12-20T02:35:18;0.70;;;0.70;;
81523;SDS011;70954;49.500;10.416;2023-12-20T02:37:43;0.60;;;0.60;;
81523;SDS011;70954;49.500;10.416;2023-12-20T02:40:09;0.70;;;0.60;;
81523;SDS011;70954;49.500;10.416;2023-12-20T02:42:35;0.40;;;0.40;;
81523;SDS011;70954;49.500;10.416;2023-12-20T02:45:00;0.63;;;0.50;;
81523;SDS011;70954;49.500;10.416;2023-12-20T02:47:25;1.02;;;0.93;;
81523;SDS011;70954;49.500;10.416;2023-12-20T02:49:51;0.50;;;0.50;;
81523;SDS011;70954;49.500;10.416;2023-12-20T02:52:16;0.73;;;0.65;;
81523;SDS011;70954;49.500;10.416;2023-12-20T02:54:42;0.80;;;0.80;;
81523;SDS011;70954;49.500;10.416;2023-12-20T02:57:07;0.80;;;0.60;;
81523;SDS011;70954;49.500;10.416;2023-12-20T02:59:33;1.05;;;0.60;;
81523;SDS011;70954;49.500;10.416;2023-12-20T03:01:58;0.65;;;0.65;;
81523;SDS011;70954;49.500;10.416;2023-12-20T03:04:24;0.80;;;0.80;;
81523;SDS011;70954;49.500;10.416;2023-12-20T03:06:49;0.70;;;0.70;;
81523;SDS011;70954;49.500;10.416;2023-12-20T03:09:15;0.60;;;0.60;;
81523;SDS011;70954;49.500;10.416;2023-12-20T03:11:40;0.50;;;0.50;;
81523;SDS011;70954;49.500;10.416;2023-12-20T03:14:06;0.82;;;0.60;;
81523;SDS011;70954;49.500;10.416;2023-12-20T03:16:31;0.40;;;0.40;;
81523;SDS011;70954;49.500;10.416;2023-12-20T03:18:57;0.68;;;0.68;;
81523;SDS011;70954;49.500;10.416;2023-12-20T03:21:22;0.50;;;0.50;;
81523;SDS011;70954;49.500;10.416;2023-12-20T03:23:47;0.60;;;0.60;;
81523;SDS011;70954;49.500;10.416;2023-12-20T03:26:13;0.63;;;0.60;;
81523;SDS011;70954;49.500;10.416;2023-12-20T03:28:38;0.60;;;0.60;;
81523;SDS011;70954;49.500;10.416;2023-12-20T03:31:04;0.93;;;0.63;;
81523;SDS011;70954;49.500;10.416;2023-12-20T03:33:29;0.70;;;0.70;;
81523;SDS011;70954;49.500;10.416;2023-12-20T03:35:55;0.57;;;0.50;;
81523;SDS011;70954;49.500;10.416;2023-12-20T03:38:21;0.60;;;0.60;;
81523;SDS011;70954;49.500;10.416;2023-12-20T03:40:47;0.65;;;0.65;;
81523;SDS011;70954;49.500;10.416;2023-12-20T03:43:12;0.60;;;0.50;;
81523;SDS011;70954;49.500;10.416;2023-12-20T03:45:38;0.88;;;0.60;;
81523;SDS011;70954;49.500;10.416;2023-12-20T03:48:03;1.05;;;0.80;;
81523;SDS011;70954;49.500;10.416;2023-12-20T03:50:29;0.60;;;0.60;;
81523;SDS011;70954;49.500;10.416;2023-12-20T03:52:55;0.70;;;0.65;;
81523;SDS011;70954;49.500;10.416;2023-12-20T03:55:20;0.88;;;0.60;;
81523;SDS011;70954;49.500;10.416;2023-12-20T03:57:45;0.50;;;0.50;;
81523;SDS011;70954;49.500;10.416;2023-12-20T04:00:11;0.50;;;0.50;;
81523;SDS011;70954;49.500;10.416;2023-12-20T04:02:37;0.50;;;0.50;;
81523;SDS011;70954;49.500;10.416;2023-12-20T04:05:03;0.88;;;0.63;;
81523;SDS011;70954;49.500;10.416;2023-12-20T04:07:29;0.57;;;0.50;;
81523;SDS011;70954;49.500;10.416;2023-12-20T04:09:55;0.50;;;0.50;;
81523;SDS011;70954;49.500;10.416;2023-12-20T04:12:20;0.50;;;0.50;;
81523;SDS011;70954;49.500;10.416;2023-12-20T04:14:45;0.47;;;0.40;;
81523;SDS011;70954;49.500;10.416;2023-12-20T04:17:11;0.65;;;0.50;;
81523;SDS011;70954;49.500;10.416;2023-12-20T04:19:36;0.50;;;0.35;;
81523;SDS011;70954;49.500;10.416;2023-12-20T04:22:02;0.50;;;0.40;;
81523;SDS011;70954;49.500;10.416;2023-12-20T04:24:27;0.50;;;0.50;;
81523;SDS011;70954;49.500;10.416;2023-12-20T04:26:53;0.45;;;0.45;;
81523;SDS011;70954;49.500;10.416;2023-12-20T04:29:18;0.50;;;0.50;;
81523;SDS011;70954;49.500;10.416;2023-12-20T04:31:44;0.57;;;0.57;;
81523;SDS011;70954;49.500;10.416;2023-12-20T04:34:09;0.40;;;0.40;;
81523;SDS011;70954;49.500;10.416;2023-12-20T04:36:35;0.47;;;0.40;;
81523;SDS011;70954;49.500;10.416;2023-12-20T04:39:00;0.30;;;0.30;;
81523;SDS011;70954;49.500;10.416;2023-12-20T04:41:26;0.50;;;0.50;;
81523;SDS011;70954;49.500;10.416;2023-12-20T04:43:51;0.40;;;0.40;;
81523;SDS011;70954;49.500;10.416;2023-12-20T04:46:17;0.80;;;0.70;;
81523;SDS011;70954;49.500;10.416;2023-12-20T04:48:42;0.47;;;0.47;;
81523;SDS011;70954;49.500;10.416;2023-12-20T04:51:07;0.32;;;0.32;;
81523;SDS011;70954;49.500;10.416;2023-12-20T04:53:33;0.52;;;0.52;;
81523;SDS011;70954;49.500;10.416;2023-12-20T04:55:58;0.50;;;0.50;;
81523;SDS011;70954;49.500;10.416;2023-12-20T04:58:24;0.50;;;0.50;;
81523;SDS011;70954;49.500;10.416;2023-12-20T05:00:49;0.43;;;0.43;;
81523;SDS011;70954;49.500;10.416;2023-12-20T05:03:15;0.40;;;0.40;;
81523;SDS011;70954;49.500;10.416;2023-12-20T05:05:40;0.52;;;0.52;;
81523;SDS011;70954;49.500;10.416;2023-12-20T05:08:06;0.40;;;0.40;;
81523;SDS011;70954;49.500;10.416;2023-12-20T05:10:31;0.50;;;0.50;;
81523;SDS011;70954;49.500;10.416;2023-12-20T05:12:56;0.77;;;0.45;;
81523;SDS011;70954;49.500;10.416;2023-12-20T05:15:22;0.40;;;0.40;;
81523;SDS011;70954;49.500;10.416;2023-12-20T05:17:47;0.40;;;0.40;;
81523;SDS011;70954;49.500;10.416;2023-12-20T05:20:13;0.30;;;0.30;;
81523;SDS011;70954;49.500;10.416;2023-12-20T05:22:38;0.60;;;0.60;;
81523;SDS011;70954;49.500;10.416;2023-12-20T05:25:04;0.43;;;0.40;;
81523;SDS011;70954;49.500;10.416;2023-12-20T05:27:29;0.85;;;0.60;;
81523;SDS011;70954;49.500;10.416;2023-12-20T05:29:55;0.50;;;0.50;;
81523;SDS011;70954;49.500;10.416;2023-12-20T05:32:20;0.43;;;0.40;;
81523;SDS011;70954;49.500;10.416;2023-12-20T05:34:46;0.82;;;0.82;;
81523;SDS011;70954;49.500;10.416;2023-12-20T05:37:11;0.70;;;0.70;;
81523;SDS011;70954;49.500;10.416;2023-12-20T05:39:37;0.60;;;0.60;;
81523;SDS011;70954;49.500;10.416;2023-12-20T05:42:02;0.70;;;0.70;;
81523;SDS011;70954;49.500;10.416;2023-12-20T05:44:28;0.80;;;0.60;;
81523;SDS011;70954;49.500;10.416;2023-12-20T05:46:53;0.43;;;0.43;;
81523;SDS011;70954;49.500;10.416;2023-12-20T05:49:18;1.63;;;1.30;;
81523;SDS011;70954;49.500;10.416;2023-12-20T05:51:44;0.75;;;0.70;;
81523;SDS011;70954;49.500;10.416;2023-12-20T05:54:09;0.75;;;0.60;;
81523;SDS011;70954;49.500;10.416;2023-12-20T05:56:35;3.25;;;2.30;;
81523;SDS011;70954;49.500;10.416;2023-12-20T05:59:00;0.95;;;0.70;;
81523;SDS011;70954;49.500;10.416;2023-12-20T06:01:25;1.05;;;0.90;;
81523;SDS011;70954;49.500;10.416;2023-12-20T06:03:51;0.75;;;0.70;;
81523;SDS011;70954;49.500;10.416;2023-12-20T06:06:16;0.60;;;0.60;;
81523;SDS011;70954;49.500;10.416;2023-12-20T06:08:42;0.80;;;0.80;;
81523;SDS011;70954;49.500;10.416;2023-12-20T06:11:07;0.82;;;0.82;;
81523;SDS011;70954;49.500;10.416;2023-12-20T06:13:33;0.80;;;0.80;;
81523;SDS011;70954;49.500;10.416;2023-12-20T06:15:58;0.73;;;0.73;;
81523;SDS011;70954;49.500;10.416;2023-12-20T06:18:24;1.00;;;0.90;;
81523;SDS011;70954;49.500;10.416;2023-12-20T06:20:49;0.85;;;0.70;;
81523;SDS011;70954;49.500;10.416;2023-12-20T06:23:14;0.95;;;0.75;;
81523;SDS011;70954;49.500;10.416;2023-12-20T06:25:40;0.70;;;0.70;;
81523;SDS011;70954;49.500;10.416;2023-12-20T06:28:05;1.20;;;0.95;;
81523;SDS011;70954;49.500;10.416;2023-12-20T06:30:31;0.60;;;0.60;;
81523;SDS011;70954;49.500;10.416;2023-12-20T06:32:56;0.70;;;0.70;;
81523;SDS011;70954;49.500;10.416;2023-12-20T06:35:22;1.13;;;1.02;;
81523;SDS011;70954;49.500;10.416;2023-12-20T06:37:47;1.30;;;0.90;;
81523;SDS011;70954;49.500;10.416;2023-12-20T06:40:12;0.75;;;0.73;;
81523;SDS011;70954;49.500;10.416;2023-12-20T06:42:38;0.80;;;0.80;;
81523;SDS011;70954;49.500;10.416;2023-12-20T06:45:04;0.73;;;0.65;;
81523;SDS011;70954;49.500;10.416;2023-12-20T06:47:29;0.88;;;0.80;;
81523;SDS011;70954;49.500;10.416;2023-12-20T06:49:55;0.80;;;0.80;;
81523;SDS011;70954;49.500;10.416;2023-12-20T06:52:20;3.75;;;1.23;;
81523;SDS011;70954;49.500;10.416;2023-12-20T06:54:46;1.00;;;0.80;;
81523;SDS011;70954;49.500;10.416;2023-12-20T06:57:11;0.80;;;0.80;;
81523;SDS011;70954;49.500;10.416;2023-12-20T06:59:40;1.02;;;0.90;;
81523;SDS011;70954;49.500;10.416;2023-12-20T07:02:06;0.80;;;0.80;;
81523;SDS011;70954;49.500;10.416;2023-12-20T07:04:31;0.73;;;0.73;;
81523;SDS011;70954;49.500;10.416;2023-12-20T07:06:57;0.90;;;0.80;;
81523;SDS011;70954;49.500;10.416;2023-12-20T07:09:22;1.17;;;1.08;;
81523;SDS011;70954;49.500;10.416;2023-12-20T07:11:48;1.10;;;1.00;;
81523;SDS011;70954;49.500;10.416;2023-12-20T07:14:14;1.10;;;1.00;;
81523;SDS011;70954;49.500;10.416;2023-12-20T07:16:39;1.27;;;1.17;;
81523;SDS011;70954;49.500;10.416;2023-12-20T07:19:05;0.88;;;0.80;;
81523;SDS011;70954;49.500;10.416;2023-12-20T07:21:30;1.13;;;1.00;;
81523;SDS011;70954;49.500;10.416;2023-12-20T07:23:56;2.13;;;1.50;;
81523;SDS011;70954;49.500;10.416;2023-12-20T07:26:21;1.13;;;1.02;;
81523;SDS011;70954;49.500;10.416;2023-12-20T07:28:47;1.02;;;0.93;;
81523;SDS011;70954;49.500;10.416;2023-12-20T07:31:12;1.75;;;1.33;;
81523;SDS011;70954;49.500;10.416;2023-12-20T07:33:40;1.30;;;1.20;;
81523;SDS011;70954;49.500;10.416;2023-12-20T07:36:05;1.40;;;1.30;;
81523;SDS011;70954;49.500;10.416;2023-12-20T07:38:31;1.10;;;1.00;;
81523;SDS011;70954;49.500;10.416;2023-12-20T07:40:56;1.10;;;1.00;;
81523;SDS011;70954;49.500;10.416;2023-12-20T07:43:21;1.17;;;1.08;;
81523;SDS011;70954;49.500;10.416;2023-12-20T07:45:47;1.42;;;1.20;;
81523;SDS011;70954;49.500;10.416;2023-12-20T07:48:12;12.88;;;5.28;;
81523;SDS011;70954;49.500;10.416;2023-12-20T07:50:38;21.67;;;9.18;;
81523;SDS011;70954;49.500;10.416;2023-12-20T07:53:03;54.83;;;23.20;;
81523;SDS011;70954;49.500;10.416;2023-12-20T07:55:29;45.90;;;19.80;;
81523;SDS011;70954;49.500;10.416;2023-12-20T07:57:54;21.80;;;8.75;;
81523;SDS011;70954;49.500;10.416;2023-12-20T08:00:21;7.60;;;3.50;;
81523;SDS011;70954;49.500;10.416;2023-12-20T08:02:46;4.07;;;2.65;;
81523;SDS011;70954;49.500;10.416;2023-12-20T08:05:11;2.50;;;2.00;;
81523;SDS011;70954;49.500;10.416;2023-12-20T08:07:37;3.00;;;2.17;;
81523;SDS011;70954;49.500;10.416;2023-12-20T08:10:02;5.95;;;3.88;;
81523;SDS011;70954;49.500;10.416;2023-12-20T08:12:28;5.28;;;4.78;;
81523;SDS011;70954;49.500;10.416;2023-12-20T08:14:54;4.53;;;3.75;;
81523;SDS011;70954;49.500;10.416;2023-12-20T08:17:19;2.80;;;2.13;;
81523;SDS011;70954;49.500;10.416;2023-12-20T08:19:45;2.17;;;1.85;;
81523;SDS011;70954;49.500;10.416;2023-12-20T08:22:11;3.20;;;2.35;;
81523;SDS011;70954;49.500;10.416;2023-12-20T08:24:36;1.77;;;1.60;;
81523;SDS011;70954;49.500;10.416;2023-12-20T08:27:02;2.05;;;1.40;;
81523;SDS011;70954;49.500;10.416;2023-12-20T08:29:28;2.17;;;1.30;;
81523;SDS011;70954;49.500;10.416;2023-12-20T08:31:54;1.83;;;1.40;;
81523;SDS011;70954;49.500;10.416;2023-12-20T08:34:20;1.92;;;1.50;;
81523;SDS011;70954;49.500;10.416;2023-12-20T08:36:45;1.70;;;1.50;;
81523;SDS011;70954;49.500;10.416;2023-12-20T08:39:11;1.58;;;1.20;;
81523;SDS011;70954;49.500;10.416;2023-12-20T08:41:36;2.30;;;1.65;;
81523;SDS011;70954;49.500;10.416;2023-12-20T08:44:02;1.75;;;1.27;;
81523;SDS011;70954;49.500;10.416;2023-12-20T08:46:27;1.80;;;1.40;;
81523;SDS011;70954;49.500;10.416;2023-12-20T08:48:53;1.98;;;1.73;;
81523;SDS011;70954;49.500;10.416;2023-12-20T08:51:18;1.80;;;1.25;;
81523;SDS011;70954;49.500;10.416;2023-12-20T08:53:44;1.10;;;1.00;;
81523;SDS011;70954;49.500;10.416;2023-12-20T08:56:09;1.48;;;1.10;;
81523;SDS011;70954;49.500;10.416;2023-12-20T08:58:35;2.65;;;1.17;;
81523;SDS011;70954;49.500;10.416;2023-12-20T09:01:00;1.30;;;1.10;;
81523;SDS011;70954;49.500;10.416;2023-12-20T09:03:25;1.13;;;0.90;;
81523;SDS011;70954;49.500;10.416;2023-12-20T09:05:51;1.48;;;1.10;;
81523;SDS011;70954;49.500;10.416;2023-12-20T09:08:16;1.60;;;1.45;;
81523;SDS011;70954;49.500;10.416;2023-12-20T09:10:42;1.50;;;1.10;;
81523;SDS011;70954;49.500;10.416;2023-12-20T09:13:07;17.33;;;6.55;;
81523;SDS011;70954;49.500;10.416;2023-12-20T09:15:33;28.27;;;10.40;;
81523;SDS011;70954;49.500;10.416;2023-12-20T09:17:58;5.85;;;2.53;;
81523;SDS011;70954;49.500;10.416;2023-12-20T09:20:24;5.72;;;2.33;;
81523;SDS011;70954;49.500;10.416;2023-12-20T09:22:49;4.53;;;1.73;;
81523;SDS011;70954;49.500;10.416;2023-12-20T09:25:14;2.05;;;1.65;;
81523;SDS011;70954;49.500;10.416;2023-12-20T09:27:40;2.17;;;1.55;;
81523;SDS011;70954;49.500;10.416;2023-12-20T09:30:06;2.97;;;1.30;;
81523;SDS011;70954;49.500;10.416;2023-12-20T09:32:31;2.75;;;1.80;;
81523;SDS011;70954;49.500;10.416;2023-12-20T09:34:57;3.20;;;1.55;;
81523;SDS011;70954;49.500;10.416;2023-12-20T09:37:22;1.52;;;1.10;;
81523;SDS011;70954;49.500;10.416;2023-12-20T09:39:51;1.77;;;1.35;;
81523;SDS011;70954;49.500;10.416;2023-12-20T09:42:17;3.63;;;1.30;;
81523;SDS011;70954;49.500;10.416;2023-12-20T09:45:06;3.92;;;1.90;;
81523;SDS011;70954;49.500;10.416;2023-12-20T09:47:34;3.65;;;1.20;;
81523;SDS011;70954;49.500;10.416;2023-12-20T09:50:00;2.28;;;1.00;;
81523;SDS011;70954;49.500;10.416;2023-12-20T09:52:26;3.05;;;1.92;;
81523;SDS011;70954;49.500;10.416;2023-12-20T09:54:52;1.88;;;1.15;;
81523;SDS011;70954;49.500;10.416;2023-12-20T09:57:18;1.95;;;1.33;;
81523;SDS011;70954;49.500;10.416;2023-12-20T09:59:43;2.00;;;1.65;;
81523;SDS011;70954;49.500;10.416;2023-12-20T10:02:11;2.80;;;1.55;;
81523;SDS011;70954;49.500;10.416;2023-12-20T10:04:38;2.65;;;1.67;;
81523;SDS011;70954;49.500;10.416;2023-12-20T10:07:11;2.25;;;1.10;;
81523;SDS011;70954;49.500;10.416;2023-12-20T10:09:36;3.65;;;1.60;;
81523;SDS011;70954;49.500;10.416;2023-12-20T10:12:02;4.18;;;1.20;;
81523;SDS011;70954;49.500;10.416;2023-12-20T10:14:29;1.90;;;0.98;;
81523;SDS011;70954;49.500;10.416;2023-12-20T10:17:01;1.20;;;0.95;;
81523;SDS011;70954;49.500;10.416;2023-12-20T10:19:30;1.38;;;0.80;;
81523;SDS011;70954;49.500;10.416;2023-12-20T10:21:56;2.13;;;0.90;;
81523;SDS011;70954;49.500;10.416;2023-12-20T10:24:24;0.90;;;0.90;;
81523;SDS011;70954;49.500;10.416;2023-12-20T10:26:53;1.88;;;1.00;;
81523;SDS011;70954;49.500;10.416;2023-12-20T10:29:35;3.80;;;2.15;;
81523;SDS011;70954;49.500;10.416;2023-12-20T10:34:50;1.55;;;0.98;;
81523;SDS011;70954;49.500;10.416;2023-12-20T10:37:16;2.40;;;1.00;;
81523;SDS011;70954;49.500;10.416;2023-12-20T10:39:42;2.05;;;1.17;;
81523;SDS011;70954;49.500;10.416;2023-12-20T10:42:08;3.28;;;1.30;;
81523;SDS011;70954;49.500;10.416;2023-12-20T10:44:36;2.92;;;1.13;;
81523;SDS011;70954;49.500;10.416;2023-12-20T10:47:01;2.83;;;2.17;;
81523;SDS011;70954;49.500;10.416;2023-12-20T10:49:29;2.08;;;1.25;;
81523;SDS011;70954;49.500;10.416;2023-12-20T10:51:55;3.10;;;1.27;;
81523;SDS011;70954;49.500;10.416;2023-12-20T10:54:24;3.47;;;1.48;;
81523;SDS011;70954;49.500;10.416;2023-12-20T10:56:50;2.05;;;1.00;;
81523;SDS011;70954;49.500;10.416;2023-12-20T10:59:17;1.73;;;1.10;;
81523;SDS011;70954;49.500;10.416;2023-12-20T11:01:45;2.95;;;1.13;;
81523;SDS011;70954;49.500;10.416;2023-12-20T11:04:14;1.80;;;1.00;;
81523;SDS011;70954;49.500;10.416;2023-12-20T11:06:56;2.10;;;1.13;;
81523;SDS011;70954;49.500;10.416;2023-12-20T11:09:36;2.00;;;1.13;;
81523;SDS011;70954;49.500;10.416;2023-12-20T11:15:12;2.25;;;1.10;;
81523;SDS011;70954;49.500;10.416;2023-12-20T11:17:38;3.20;;;1.10;;
81523;SDS011;70954;49.500;10.416;2023-12-20T11:20:06;1.65;;;1.20;;
81523;SDS011;70954;49.500;10.416;2023-12-20T11:22:32;2.78;;;1.13;;
81523;SDS011;70954;49.500;10.416;2023-12-20T11:25:02;3.03;;;1.17;;
81523;SDS011;70954;49.500;10.416;2023-12-20T11:27:32;3.42;;;1.63;;
81523;SDS011;70954;49.500;10.416;2023-12-20T11:29:58;2.50;;;1.50;;
81523;SDS011;70954;49.500;10.416;2023-12-20T11:34:50;1.80;;;1.30;;
81523;SDS011;70954;49.500;10.416;2023-12-20T11:37:16;2.80;;;1.45;;
81523;SDS011;70954;49.500;10.416;2023-12-20T11:39:44;9.48;;;3.38;;
81523;SDS011;70954;49.500;10.416;2023-12-20T11:42:09;6.75;;;2.72;;
81523;SDS011;70954;49.500;10.416;2023-12-20T11:44:36;13.57;;;3.67;;
81523;SDS011;70954;49.500;10.416;2023-12-20T11:47:02;24.88;;;7.97;;
81523;SDS011;70954;49.500;10.416;2023-12-20T11:49:27;13.35;;;3.65;;
81523;SDS011;70954;49.500;10.416;2023-12-20T11:51:53;20.20;;;5.38;;
81523;SDS011;70954;49.500;10.416;2023-12-20T11:54:18;49.33;;;15.65;;
81523;SDS011;70954;49.500;10.416;2023-12-20T11:56:44;25.63;;;7.35;;
81523;SDS011;70954;49.500;10.416;2023-12-20T11:59:09;12.15;;;4.00;;
81523;SDS011;70954;49.500;10.416;2023-12-20T12:01:35;5.93;;;2.97;;
81523;SDS011;70954;49.500;10.416;2023-12-20T12:04:06;4.93;;;2.45;;
81523;SDS011;70954;49.500;10.416;2023-12-20T12:06:32;5.40;;;2.97;;
81523;SDS011;70954;49.500;10.416;2023-12-20T12:08:57;3.75;;;1.73;;
81523;SDS011;70954;49.500;10.416;2023-12-20T12:11:23;3.78;;;1.60;;
81523;SDS011;70954;49.500;10.416;2023-12-20T12:13:48;5.95;;;2.67;;
81523;SDS011;70954;49.500;10.416;2023-12-20T12:16:17;5.53;;;2.95;;
81523;SDS011;70954;49.500;10.416;2023-12-20T12:18:44;5.03;;;3.38;;
81523;SDS011;70954;49.500;10.416;2023-12-20T12:21:10;4.88;;;2.17;;
81523;SDS011;70954;49.500;10.416;2023-12-20T12:23:43;3.40;;;1.60;;
81523;SDS011;70954;49.500;10.416;2023-12-20T12:26:08;2.80;;;1.70;;
81523;SDS011;70954;49.500;10.416;2023-12-20T12:28:34;3.63;;;1.85;;
81523;SDS011;70954;49.500;10.416;2023-12-20T12:30:59;3.28;;;1.50;;
81523;SDS011;70954;49.500;10.416;2023-12-20T12:33:25;1.90;;;1.40;;
81523;SDS011;70954;49.500;10.416;2023-12-20T12:35:51;1.40;;;0.90;;
81523;SDS011;70954;49.500;10.416;2023-12-20T12:38:20;2.05;;;1.35;;
81523;SDS011;70954;49.500;10.416;2023-12-20T12:40:46;1.70;;;1.42;;
81523;SDS011;70954;49.500;10.416;2023-12-20T12:43:12;3.97;;;1.40;;
81523;SDS011;70954;49.500;10.416;2023-12-20T12:45:38;3.40;;;1.50;;
81523;SDS011;70954;49.500;10.416;2023-12-20T12:48:03;2.13;;;1.17;;
81523;SDS011;70954;49.500;10.416;2023-12-20T12:50:30;4.20;;;1.42;;
81523;SDS011;70954;49.500;10.416;2023-12-20T12:52:56;3.10;;;1.45;;
81523;SDS011;70954;49.500;10.416;2023-12-20T12:55:21;1.88;;;1.15;;
81523;SDS011;70954;49.500;10.416;2023-12-20T12:57:47;3.10;;;1.35;;
81523;SDS011;70954;49.500;10.416;2023-12-20T13:00:12;1.92;;;1.00;;
81523;SDS011;70954;49.500;10.416;2023-12-20T13:02:38;1.83;;;1.20;;
81523;SDS011;70954;49.500;10.416;2023-12-20T13:05:04;2.08;;;1.00;;
81523;SDS011;70954;49.500;10.416;2023-12-20T13:07:30;3.45;;;1.40;;
81523;SDS011;70954;49.500;10.416;2023-12-20T13:09:55;2.88;;;1.20;;
81523;SDS011;70954;49.500;10.416;2023-12-20T13:12:20;2.83;;;1.40;;
81523;SDS011;70954;49.500;10.416;2023-12-20T13:14:46;4.20;;;1.23;;
81523;SDS011;70954;49.500;10.416;2023-12-20T13:17:12;5.93;;;1.40;;
81523;SDS011;70954;49.500;10.416;2023-12-20T13:19:37;3.35;;;1.20;;
81523;SDS011;70954;49.500;10.416;2023-12-20T13:22:03;2.22;;;0.90;;
81523;SDS011;70954;49.500;10.416;2023-12-20T13:24:28;4.68;;;1.45;;
81523;SDS011;70954;49.500;10.416;2023-12-20T13:26:54;1.52;;;0.98;;
81523;SDS011;70954;49.500;10.416;2023-12-20T13:29:20;1.05;;;0.95;;
81523;SDS011;70954;49.500;10.416;2023-12-20T13:31:45;1.17;;;1.00;;
81523;SDS011;70954;49.500;10.416;2023-12-20T13:34:11;2.25;;;1.02;;
81523;SDS011;70954;49.500;10.416;2023-12-20T13:36:36;2.92;;;0.90;;
81523;SDS011;70954;49.500;10.416;2023-12-20T13:39:02;1.20;;;0.88;;
81523;SDS011;70954;49.500;10.416;2023-12-20T13:41:28;2.75;;;1.08;;
81523;SDS011;70954;49.500;10.416;2023-12-20T13:43:54;3.38;;;1.20;;
81523;SDS011;70954;49.500;10.416;2023-12-20T13:46:19;3.70;;;1.30;;
81523;SDS011;70954;49.500;10.416;2023-12-20T13:48:44;1.35;;;0.85;;
81523;SDS011;70954;49.500;10.416;2023-12-20T13:51:10;3.13;;;1.08;;
81523;SDS011;70954;49.500;10.416;2023-12-20T13:53:35;3.15;;;1.00;;
81523;SDS011;70954;49.500;10.416;2023-12-20T13:56:01;1.92;;;1.00;;
81523;SDS011;70954;49.500;10.416;2023-12-20T13:58:26;2.22;;;1.10;;
81523;SDS011;70954;49.500;10.416;2023-12-20T14:00:52;3.83;;;1.27;;
81523;SDS011;70954;49.500;10.416;2023-12-20T14:03:17;1.50;;;1.10;;
81523;SDS011;70954;49.500;10.416;2023-12-20T14:05:43;3.58;;;1.02;;
81523;SDS011;70954;49.500;10.416;2023-12-20T14:08:08;2.50;;;0.80;;
81523;SDS011;70954;49.500;10.416;2023-12-20T14:10:34;2.75;;;1.15;;
81523;SDS011;70954;49.500;10.416;2023-12-20T14:12:59;1.30;;;1.20;;
81523;SDS011;70954;49.500;10.416;2023-12-20T14:15:24;2.63;;;1.20;;
81523;SDS011;70954;49.500;10.416;2023-12-20T14:17:50;2.47;;;1.10;;
81523;SDS011;70954;49.500;10.416;2023-12-20T14:20:16;2.40;;;1.10;;
81523;SDS011;70954;49.500;10.416;2023-12-20T14:22:41;3.30;;;1.30;;
81523;SDS011;70954;49.500;10.416;2023-12-20T14:25:07;2.60;;;1.20;;
81523;SDS011;70954;49.500;10.416;2023-12-20T14:27:33;4.13;;;1.67;;
81523;SDS011;70954;49.500;10.416;2023-12-20T14:29:58;2.15;;;1.00;;
81523;SDS011;70954;49.500;10.416;2023-12-20T14:32:24;2.78;;;1.08;;
81523;SDS011;70954;49.500;10.416;2023-12-20T14:34:49;1.75;;;1.20;;